createdAt,value
2022-09-04T00:00:03.589Z,15.89
2022-09-04T00:03:03.290Z,15.87
2022-09-04T00:05:49.548Z,15.68
2022-09-04T00:08:15.894Z,15.71
2022-09-04T00:11:20.166Z,15.79
2022-09-04T00:13:55.209Z,15.85
2022-09-04T00:16:24.521Z,15.74
2022-09-04T00:19:17.866Z,15.74
2022-09-04T00:22:11.001Z,15.73
2022-09-04T00:24:42.151Z,15.75
2022-09-04T00:27:13.871Z,15.64
2022-09-04T00:29:54.476Z,15.66
2022-09-04T00:32:38.496Z,15.61
2022-09-04T00:35:32.446Z,15.60
2022-09-04T00:38:15.484Z,15.61
2022-09-04T00:41:15.844Z,15.52
2022-09-04T00:44:11.954Z,15.46
2022-09-04T00:46:56.153Z,15.51
2022-09-04T00:49:46.879Z,15.49
2022-09-04T00:52:41.269Z,15.36
2022-09-04T00:55:38.903Z,15.39
2022-09-04T00:58:49.592Z,15.31
2022-09-04T01:01:23.719Z,15.23
2022-09-04T01:04:12.332Z,15.30
2022-09-04T01:07:03.600Z,15.35
2022-09-04T01:10:01.066Z,15.31
2022-09-04T01:12:53.355Z,15.33
2022-09-04T01:15:42.885Z,14.96
2022-09-04T01:18:10.171Z,15.01
2022-09-04T01:21:01.200Z,15.00
2022-09-04T01:23:48.939Z,14.94
2022-09-04T01:26:21.434Z,15.03
2022-09-04T01:28:58.819Z,15.01
2022-09-04T01:32:02.873Z,15.08
2022-09-04T01:34:45.150Z,15.05
2022-09-04T01:37:30.224Z,15.07
2022-09-04T01:40:36.211Z,14.95
2022-09-04T01:43:07.716Z,14.87
2022-09-04T01:45:55.477Z,14.88
2022-09-04T01:48:34.909Z,14.78
2022-09-04T01:51:15.214Z,14.80
2022-09-04T01:53:46.152Z,14.93
2022-09-04T01:56:21.720Z,14.78
2022-09-04T01:58:56.815Z,14.81
2022-09-04T02:01:47.652Z,14.90
2022-09-04T02:04:28.235Z,14.82
2022-09-04T02:07:13.386Z,14.82
2022-09-04T02:09:54.016Z,14.88
2022-09-04T02:12:35.337Z,15.00
2022-09-04T02:15:13.086Z,15.04
2022-09-04T02:18:20.679Z,14.99
2022-09-04T02:20:58.736Z,14.90
2022-09-04T02:24:02.476Z,14.85
2022-09-04T02:26:55.055Z,14.93
2022-09-04T02:29:36.472Z,14.91
2022-09-04T02:32:20.375Z,14.87
2022-09-04T02:35:02.724Z,14.87
2022-09-04T02:37:32.891Z,14.79
2022-09-04T02:40:11.893Z,14.73
2022-09-04T02:43:06.053Z,14.66
2022-09-04T02:46:02.129Z,14.77
2022-09-04T02:48:40.258Z,14.96
2022-09-04T02:51:45.556Z,14.85
2022-09-04T02:54:38.642Z,14.89
2022-09-04T02:57:43.850Z,14.56
2022-09-04T03:00:21.636Z,14.56
2022-09-04T03:03:15.794Z,14.73
2022-09-04T03:06:18.377Z,14.72
2022-09-04T03:09:01.869Z,14.56
2022-09-04T03:12:05.469Z,14.46
2022-09-04T03:14:41.058Z,14.59
2022-09-04T03:17:33.855Z,14.71
2022-09-04T03:20:09.860Z,14.54
2022-09-04T03:22:40.781Z,14.59
2022-09-04T03:25:50.741Z,14.41
2022-09-04T03:28:43.425Z,14.53
2022-09-04T03:31:40.528Z,14.35
2022-09-04T03:34:34.066Z,14.49
2022-09-04T03:37:15.708Z,14.40
2022-09-04T03:40:05.689Z,14.35
2022-09-04T03:42:47.232Z,14.34
2022-09-04T03:45:32.476Z,14.49
2022-09-04T03:48:37.046Z,14.56
2022-09-04T03:51:10.856Z,14.49
2022-09-04T03:53:43.529Z,14.29
2022-09-04T03:56:28.492Z,14.43
2022-09-04T03:59:03.275Z,14.41
2022-09-04T04:01:47.736Z,14.36
2022-09-04T04:04:52.780Z,14.50
2022-09-04T04:07:21.920Z,14.63
2022-09-04T04:10:03.334Z,14.60
2022-09-04T04:13:14.878Z,14.49
2022-09-04T04:15:46.296Z,14.47
2022-09-04T04:18:19.460Z,14.53
2022-09-04T04:21:19.732Z,14.52
2022-09-04T04:23:57.555Z,14.62
2022-09-04T04:26:52.898Z,14.44
2022-09-04T04:29:43.130Z,14.44
2022-09-04T04:32:28.426Z,14.56
2022-09-04T04:35:12.586Z,14.56
2022-09-04T04:38:18.152Z,14.41
2022-09-04T04:41:16.035Z,14.43
2022-09-04T04:43:55.395Z,14.62
2022-09-04T04:47:01.812Z,14.63
2022-09-04T04:49:58.554Z,14.60
2022-09-04T04:52:58.282Z,14.51
2022-09-04T04:55:40.031Z,14.62
2022-09-04T04:58:07.752Z,14.52
2022-09-04T05:01:01.817Z,14.60
2022-09-04T05:03:52.086Z,14.67
2022-09-04T05:06:30.712Z,14.71
2022-09-04T05:09:32.407Z,14.62
2022-09-04T05:12:11.066Z,14.55
2022-09-04T05:15:13.710Z,14.65
2022-09-04T05:17:49.154Z,14.70
2022-09-04T05:20:49.684Z,14.61
2022-09-04T05:23:38.845Z,14.56
2022-09-04T05:26:14.102Z,14.62
2022-09-04T05:28:45.393Z,14.59
2022-09-04T05:31:37.831Z,14.48
2022-09-04T05:34:07.655Z,14.45
2022-09-04T05:37:07.480Z,14.54
2022-09-04T05:40:03.013Z,14.40
2022-09-04T05:42:38.291Z,14.59
2022-09-04T05:45:29.328Z,14.69
2022-09-04T05:48:17.706Z,14.72
2022-09-04T05:50:53.176Z,14.78
2022-09-04T05:53:40.828Z,14.70
2022-09-04T05:56:30.413Z,14.82
2022-09-04T05:59:27.890Z,14.84
2022-09-04T06:02:29.093Z,14.90
2022-09-04T06:05:06.512Z,15.02
2022-09-04T06:07:47.150Z,14.85
2022-09-04T06:10:19.882Z,14.85
2022-09-04T06:13:06.306Z,14.88
2022-09-04T06:15:40.268Z,14.91
2022-09-04T06:18:33.617Z,14.78
2022-09-04T06:21:13.432Z,14.85
2022-09-04T06:24:07.804Z,14.74
2022-09-04T06:27:13.350Z,14.80
2022-09-04T06:30:03.333Z,14.90
2022-09-04T06:32:42.022Z,14.96
2022-09-04T06:35:27.396Z,15.01
2022-09-04T06:38:12.676Z,15.00
2022-09-04T06:41:08.616Z,14.95
2022-09-04T06:44:06.001Z,14.99
2022-09-04T06:46:45.402Z,14.88
2022-09-04T06:49:36.009Z,15.05
2022-09-04T06:52:07.477Z,15.10
2022-09-04T06:55:00.228Z,15.11
2022-09-04T06:57:35.873Z,15.07
2022-09-04T07:00:14.684Z,15.14
2022-09-04T07:02:56.447Z,15.24
2022-09-04T07:05:43.249Z,15.27
2022-09-04T07:08:25.770Z,15.24
2022-09-04T07:11:17.013Z,15.11
2022-09-04T07:13:49.430Z,15.27
2022-09-04T07:16:43.417Z,15.36
2022-09-04T07:19:24.829Z,15.46
2022-09-04T07:22:42.558Z,15.56
2022-09-04T07:25:26.210Z,15.49
2022-09-04T07:27:55.887Z,15.58
2022-09-04T07:30:25.867Z,15.74
2022-09-04T07:32:58.530Z,15.76
2022-09-04T07:35:47.984Z,15.82
2022-09-04T07:38:50.578Z,15.78
2022-09-04T07:41:39.641Z,15.76
2022-09-04T07:44:37.085Z,15.88
2022-09-04T07:47:27.486Z,15.87
2022-09-04T07:50:18.630Z,15.95
2022-09-04T07:53:11.369Z,15.94
2022-09-04T07:55:41.534Z,15.94
2022-09-04T07:58:31.438Z,16.09
2022-09-04T08:01:29.726Z,16.17
2022-09-04T08:04:22.523Z,16.24
2022-09-04T08:07:01.102Z,16.42
2022-09-04T08:10:01.296Z,16.64
2022-09-04T08:12:42.865Z,16.87
2022-09-04T08:15:19.942Z,17.03
2022-09-04T08:18:10.412Z,17.16
2022-09-04T08:21:10.096Z,17.31
2022-09-04T08:24:14.294Z,17.50
2022-09-04T08:26:46.637Z,17.54
2022-09-04T08:29:34.808Z,17.65
2022-09-04T08:32:09.556Z,17.80
2022-09-04T08:34:58.613Z,17.93
2022-09-04T08:37:28.970Z,17.99
2022-09-04T08:40:29.462Z,18.10
2022-09-04T08:43:03.992Z,18.20
2022-09-04T08:46:14.565Z,18.30
2022-09-04T08:49:11.913Z,18.45
2022-09-04T08:51:58.941Z,18.58
2022-09-04T08:54:57.654Z,18.71
2022-09-04T08:57:53.919Z,18.82
2022-09-04T09:00:22.369Z,18.97
2022-09-04T09:03:24.072Z,19.16
2022-09-04T09:06:06.728Z,19.29
2022-09-04T09:09:12.214Z,19.41
2022-09-04T09:12:09.103Z,19.55
2022-09-04T09:15:03.194Z,19.71
2022-09-04T09:17:38.984Z,19.87
2022-09-04T09:20:24.300Z,19.99
2022-09-04T09:23:19.831Z,20.13
2022-09-04T09:25:56.090Z,20.25
2022-09-04T09:28:59.085Z,20.36
2022-09-04T09:31:44.220Z,20.44
2022-09-04T09:34:29.334Z,20.58
2022-09-04T09:37:37.781Z,20.74
2022-09-04T09:40:36.836Z,20.82
2022-09-04T09:43:12.289Z,20.99
2022-09-04T09:45:43.791Z,21.15
2022-09-04T09:48:36.014Z,21.31
2022-09-04T09:51:44.420Z,21.50
2022-09-04T09:54:29.109Z,21.58
2022-09-04T09:57:07.365Z,21.71
2022-09-04T10:00:06.832Z,21.87
2022-09-04T10:03:26.527Z,22.00
2022-09-04T10:06:16.553Z,22.12
2022-09-04T10:08:58.685Z,22.24
2022-09-04T10:11:40.438Z,22.40
2022-09-04T10:14:50.562Z,22.57
2022-09-04T10:17:45.117Z,22.71
2022-09-04T10:20:42.006Z,22.90
2022-09-04T10:23:48.113Z,23.06
2022-09-04T10:26:17.892Z,23.18
2022-09-04T10:29:18.557Z,23.36
2022-09-04T10:31:52.548Z,23.50
2022-09-04T10:35:09.757Z,23.65
2022-09-04T10:38:09.823Z,23.71
2022-09-04T10:40:52.855Z,23.80
2022-09-04T10:43:37.676Z,23.88
2022-09-04T10:46:28.398Z,23.96
2022-09-04T10:49:34.181Z,24.07
2022-09-04T10:52:06.844Z,24.18
2022-09-04T10:54:44.147Z,24.33
2022-09-04T10:57:33.012Z,24.40
2022-09-04T11:00:20.380Z,24.44
2022-09-04T11:03:24.604Z,24.56
2022-09-04T11:06:08.666Z,24.61
2022-09-04T11:09:04.416Z,24.61
2022-09-04T11:11:59.857Z,24.71
2022-09-04T11:14:36.974Z,24.71
2022-09-04T11:17:25.392Z,24.65
2022-09-04T11:20:18.363Z,24.55
2022-09-04T11:23:05.023Z,24.53
2022-09-04T11:26:08.760Z,24.47
2022-09-04T11:28:47.335Z,24.66
2022-09-04T11:31:49.372Z,24.35
2022-09-04T11:34:40.647Z,23.98
2022-09-04T11:37:48.561Z,23.64
2022-09-04T11:40:46.815Z,23.36
2022-09-04T11:43:37.387Z,23.14
2022-09-04T11:46:34.720Z,22.99
2022-09-04T11:49:31.061Z,22.89
2022-09-04T11:52:08.988Z,22.84
2022-09-04T11:54:56.599Z,22.78
2022-09-04T11:57:35.737Z,22.71
2022-09-04T12:00:12.391Z,22.65
2022-09-04T12:02:57.100Z,22.59
2022-09-04T12:05:45.662Z,22.52
2022-09-04T12:08:41.398Z,22.39
2022-09-04T12:11:34.689Z,22.33
2022-09-04T12:14:04.038Z,22.26
2022-09-04T12:17:05.401Z,22.24
2022-09-04T12:19:57.394Z,22.26
2022-09-04T12:22:42.097Z,22.24
2022-09-04T12:25:14.564Z,22.23
2022-09-04T12:28:06.019Z,22.20
2022-09-04T12:30:50.629Z,22.16
2022-09-04T12:33:42.744Z,22.12
2022-09-04T12:36:18.166Z,22.13
2022-09-04T12:39:22.270Z,22.10
2022-09-04T12:41:57.517Z,22.11
2022-09-04T12:44:33.352Z,22.08
2022-09-04T12:47:35.182Z,22.10
2022-09-04T12:50:29.626Z,22.11
2022-09-04T12:53:26.027Z,22.12
2022-09-04T12:56:06.250Z,22.11
2022-09-04T12:59:23.907Z,22.13
2022-09-04T13:02:24.146Z,22.09
2022-09-04T13:05:28.717Z,22.10
2022-09-04T13:08:01.364Z,22.12
2022-09-04T13:10:41.200Z,22.16
2022-09-04T13:13:13.547Z,22.26
2022-09-04T13:15:48.938Z,22.29
2022-09-04T13:18:27.507Z,22.37
2022-09-04T13:21:05.358Z,22.38
2022-09-04T13:23:47.724Z,22.41
2022-09-04T13:26:29.683Z,22.58
2022-09-04T13:29:19.522Z,22.70
2022-09-04T13:32:13.904Z,23.00
2022-09-04T13:34:52.761Z,23.29
2022-09-04T13:37:29.151Z,23.48
2022-09-04T13:40:24.226Z,23.62
2022-09-04T13:43:15.512Z,23.77
2022-09-04T13:45:53.822Z,23.72
2022-09-04T13:48:37.431Z,23.71
2022-09-04T13:51:29.624Z,23.62
2022-09-04T13:54:05.091Z,23.48
2022-09-04T13:56:39.640Z,23.34
2022-09-04T13:59:10.574Z,23.26
2022-09-04T14:01:45.988Z,23.15
2022-09-04T14:04:17.456Z,23.05
2022-09-04T14:06:44.757Z,22.99
2022-09-04T14:09:11.459Z,22.91
2022-09-04T14:11:45.122Z,22.85
2022-09-04T14:14:19.860Z,22.79
2022-09-04T14:16:49.371Z,22.73
2022-09-04T14:19:49.660Z,22.71
2022-09-04T14:22:23.890Z,22.63
2022-09-04T14:25:06.394Z,22.59
2022-09-04T14:28:11.193Z,22.54
2022-09-04T14:33:35.767Z,22.50
2022-09-04T14:36:33.950Z,22.52
2022-09-04T14:39:20.538Z,22.50
2022-09-04T14:42:19.711Z,22.51
2022-09-04T14:45:09.437Z,22.51
2022-09-04T14:48:06.317Z,22.50
2022-09-04T14:50:44.424Z,22.52
2022-09-04T14:53:18.673Z,22.52
2022-09-04T14:56:07.665Z,22.52
2022-09-04T14:58:38.862Z,22.54
2022-09-04T15:01:17.042Z,22.54
2022-09-04T15:04:01.715Z,22.53
2022-09-04T15:07:10.413Z,22.53
2022-09-04T15:09:40.953Z,22.52
2022-09-04T15:12:32.360Z,22.53
2022-09-04T15:15:32.734Z,22.63
2022-09-04T15:18:23.368Z,22.69
2022-09-04T15:21:01.957Z,22.65
2022-09-04T15:23:45.690Z,22.68
2022-09-04T15:26:24.789Z,22.70
2022-09-04T15:29:02.371Z,22.72
2022-09-04T15:31:35.367Z,22.71
2022-09-04T15:34:08.664Z,22.74
2022-09-04T15:36:37.732Z,22.75
2022-09-04T15:39:18.395Z,22.77
2022-09-04T15:41:49.823Z,22.79
2022-09-04T15:44:34.969Z,22.81
2022-09-04T15:47:19.823Z,22.83
2022-09-04T15:49:54.613Z,22.87
2022-09-04T15:52:37.609Z,22.88
2022-09-04T15:55:07.753Z,22.89
2022-09-04T15:57:55.967Z,22.89
2022-09-04T16:00:24.878Z,22.88
2022-09-04T16:03:08.908Z,22.84
2022-09-04T16:05:49.130Z,22.80
2022-09-04T16:08:33.230Z,22.83
2022-09-04T16:11:16.559Z,22.81
2022-09-04T16:13:58.115Z,22.80
2022-09-04T16:16:33.339Z,22.81
2022-09-04T16:19:14.086Z,22.78
2022-09-04T16:21:46.580Z,22.80
2022-09-04T16:24:51.777Z,22.80
2022-09-04T16:27:22.154Z,22.79
2022-09-04T16:29:55.274Z,22.77
2022-09-04T16:32:24.316Z,22.73
2022-09-04T16:34:55.294Z,22.72
2022-09-04T16:37:42.308Z,22.71
2022-09-04T16:40:29.410Z,22.71
2022-09-04T16:43:11.978Z,22.71
2022-09-04T16:46:15.425Z,22.73
2022-09-04T16:48:54.064Z,22.75
2022-09-04T16:51:40.207Z,22.75
2022-09-04T16:54:17.270Z,22.75
2022-09-04T16:56:50.699Z,22.74
2022-09-04T16:59:24.865Z,22.70
2022-09-04T17:01:59.772Z,22.64
2022-09-04T17:04:47.573Z,22.62
2022-09-04T17:07:21.414Z,22.57
2022-09-04T17:10:05.881Z,22.49
2022-09-04T17:12:56.045Z,22.47
2022-09-04T17:15:53.249Z,22.48
2022-09-04T17:18:22.794Z,22.51
2022-09-04T17:25:05.710Z,22.48
2022-09-04T17:28:55.486Z,22.44
2022-09-04T17:29:14.605Z,22.38
2022-09-04T17:29:46.278Z,22.32
2022-09-04T17:38:05.105Z,22.26
2022-09-04T17:40:32.917Z,22.27
2022-09-04T17:40:46.824Z,22.25
2022-09-04T17:41:54.000Z,22.25
2022-09-04T17:44:38.528Z,22.24
2022-09-04T17:47:19.393Z,22.22
2022-09-04T17:49:49.425Z,22.18
2022-09-04T17:52:57.049Z,22.14
2022-09-04T17:55:24.438Z,22.10
2022-09-04T17:58:22.014Z,22.09
2022-09-04T18:01:14.473Z,22.05
2022-09-04T18:04:24.863Z,22.03
2022-09-04T18:06:58.387Z,21.95
2022-09-04T18:09:39.822Z,21.95
2022-09-04T18:12:24.966Z,21.85
2022-09-04T18:15:12.933Z,21.81
2022-09-04T18:17:56.535Z,21.73
2022-09-04T18:20:38.249Z,21.65
2022-09-04T18:23:31.304Z,21.59
2022-09-04T18:26:07.209Z,21.53
2022-09-04T18:28:42.406Z,21.50
2022-09-04T18:37:10.920Z,21.43
2022-09-04T18:37:20.594Z,21.33
2022-09-04T18:37:44.165Z,21.12
2022-09-04T18:43:29.797Z,21.08
2022-09-04T18:50:25.800Z,21.02
2022-09-04T18:50:35.751Z,20.98
2022-09-04T18:50:42.919Z,20.97
2022-09-04T18:52:22.186Z,20.96
2022-09-04T18:54:54.096Z,20.92
2022-09-04T18:57:32.236Z,20.96
2022-09-04T19:00:09.463Z,20.93
2022-09-04T19:02:53.832Z,20.90
2022-09-04T19:05:21.957Z,20.79
2022-09-04T19:07:55.954Z,20.76
2022-09-04T19:10:29.998Z,20.72
2022-09-04T19:13:14.068Z,20.66
2022-09-04T19:16:16.029Z,20.64
2022-09-04T19:19:03.932Z,20.58
2022-09-04T19:21:57.643Z,20.48
2022-09-04T19:24:35.732Z,20.43
2022-09-04T19:27:26.838Z,20.44
2022-09-04T19:30:19.806Z,20.38
2022-09-04T19:32:59.652Z,20.32
2022-09-04T19:35:37.096Z,20.26
2022-09-04T19:41:32.791Z,20.33
2022-09-04T19:46:02.227Z,20.23
2022-09-04T19:46:03.142Z,20.30
2022-09-04T19:47:27.449Z,20.23
2022-09-04T19:53:19.745Z,20.18
2022-09-04T19:53:35.615Z,20.05
2022-09-04T19:55:55.690Z,20.12
2022-09-04T19:58:37.904Z,20.08
2022-09-04T20:01:14.217Z,20.00
2022-09-04T20:03:52.993Z,19.98
2022-09-04T20:06:26.377Z,20.00
2022-09-04T20:09:06.266Z,19.98
2022-09-04T20:11:38.685Z,20.01
2022-09-04T20:14:14.414Z,19.99
2022-09-04T20:16:53.999Z,19.98
2022-09-04T20:19:38.699Z,19.93
2022-09-04T20:22:14.658Z,19.86
2022-09-04T20:25:01.553Z,19.85
2022-09-04T20:27:41.639Z,19.86
2022-09-04T20:30:12.549Z,19.87
2022-09-04T20:32:56.567Z,19.84
2022-09-04T20:35:39.290Z,19.82
2022-09-04T20:38:23.908Z,19.81
2022-09-04T20:41:29.316Z,19.84
2022-09-04T20:44:28.193Z,19.76
2022-09-04T20:52:44.255Z,19.78
2022-09-04T20:52:55.458Z,19.74
2022-09-04T20:53:20.183Z,19.70
2022-09-04T20:56:17.137Z,19.64
2022-09-04T21:03:06.622Z,19.50
2022-09-04T21:03:22.399Z,19.39
2022-09-04T21:05:21.548Z,19.43
2022-09-04T21:08:00.374Z,19.35
2022-09-04T21:10:37.544Z,19.30
2022-09-04T21:13:29.904Z,19.28
2022-09-04T21:16:05.433Z,19.19
2022-09-04T21:19:28.176Z,19.24
2022-09-04T21:22:32.903Z,19.10
2022-09-04T21:25:08.218Z,19.01
2022-09-04T21:28:12.273Z,19.01
2022-09-04T21:31:23.543Z,19.02
2022-09-04T21:34:43.315Z,18.96
2022-09-04T21:37:32.860Z,18.93
2022-09-04T21:40:42.245Z,18.89
2022-09-04T21:43:19.440Z,18.80
2022-09-04T21:46:07.813Z,18.73
2022-09-04T21:49:08.091Z,18.67
2022-09-04T21:51:43.934Z,18.68
2022-09-04T21:54:38.423Z,18.61
2022-09-04T22:02:31.849Z,18.41
2022-09-04T22:02:37.796Z,18.25
2022-09-04T22:04:19.614Z,18.17
2022-09-04T22:08:33.183Z,18.19
2022-09-04T22:13:27.692Z,18.06
2022-09-04T22:13:40.328Z,17.93
2022-09-04T22:16:17.959Z,17.97
2022-09-04T22:19:16.407Z,17.72
2022-09-04T22:22:28.564Z,17.82
2022-09-04T22:25:12.589Z,17.82
2022-09-04T22:28:14.004Z,17.81
2022-09-04T22:30:40.288Z,17.71
2022-09-04T22:33:18.736Z,17.75
2022-09-04T22:35:53.933Z,17.69
2022-09-04T22:38:32.452Z,17.69
2022-09-04T22:41:23.577Z,17.64
2022-09-04T22:44:09.338Z,17.72
2022-09-04T22:47:20.152Z,17.53
2022-09-04T22:50:10.466Z,17.51
2022-09-04T22:52:41.753Z,17.39
2022-09-04T22:56:00.703Z,17.38
2022-09-04T22:58:44.116Z,17.44
2022-09-04T23:01:45.570Z,17.41
2022-09-04T23:04:35.763Z,17.38
2022-09-04T23:09:54.069Z,17.22
2022-09-04T23:13:54.634Z,17.18
2022-09-04T23:13:57.504Z,17.32
2022-09-04T23:16:27.846Z,17.18
2022-09-04T23:23:22.606Z,16.98
2022-09-04T23:26:34.384Z,17.02
2022-09-04T23:26:45.515Z,17.06
2022-09-04T23:28:27.324Z,16.97
2022-09-04T23:31:08.640Z,16.96
2022-09-04T23:34:11.177Z,16.87
2022-09-04T23:36:44.518Z,16.92
2022-09-04T23:39:36.094Z,16.88
2022-09-04T23:42:11.544Z,16.88
2022-09-04T23:45:04.961Z,16.75
2022-09-04T23:47:47.170Z,16.70
2022-09-04T23:50:37.370Z,16.67
2022-09-04T23:53:15.866Z,16.74
2022-09-04T23:55:56.097Z,16.58
2022-09-04T23:58:51.845Z,16.75
